Commodore Clipper — C6QQ3 — position and weather

sailwx.info

Track history (hours):
 
Tides and Currents Weather Stations Pressure Air Temp Water Temp Dewpoint Dewpoint Depression Visibility Wind Speed Wind Dir Waves Ship Positions

Commodore Clipper

Operator: Condor Marine Services

Last reported at 2017-Mar-30 14:12 UTC. Time now 2017-Mar-30 22:48 UTC.
Position N 49°32' W 002°13'.

Length 130 m; draft 5.2 m.

Type: Ship. MMSI: 308094000.

Date/timePositionNaut miles runAvg speedWind from/ knotsBaromVisibWave heightAir tempDewpointWater temp
2017-Mar-30 14:12N 49°32' W 002°13'1517.8
2017-Mar-30 13:22N 49°46' W 002°01'1316.7
2017-Mar-30 12:34N 49°56' W 001°47'1615.8
2017-Mar-30 11:34N 50°08' W 001°33'1514.7
2017-Mar-30 10:32N 50°21' W 001°20'1414.1
2017-Mar-30 09:34N 50°33' W 001°09'1313.0
2017-Mar-30 08:34N 50°45' W 001°05'3 3.4
2017-Mar-30 07:33N 50°49' W 001°06'0 0.0
2017-Mar-30 06:33N 50°49' W 001°06'0 0.0
2017-Mar-30 05:33N 50°49' W 001°06'7 7.4
2017-Mar-30 04:34N 50°42' W 001°01'1413.6
2017-Mar-30 03:33N 50°31' W 001°14'1414.2
2017-Mar-30 02:33N 50°21' W 001°28'1111.4
2017-Mar-30 01:33N 50°11' W 001°37'1312.6
2017-Mar-30 00:33N 49°60' W 001°46'1413.9
2017-Mar-29 23:33N 49°49' W 001°59'1614.5
2017-Mar-29 22:25N 49°34' W 002°10'3 0.3
2017-Mar-29 14:07N 49°32' W 002°13'1620.7
2017-Mar-29 13:21N 49°46' W 002°02'1519.0
2017-Mar-29 12:33N 49°60' W 001°51'1716.8
2017-Mar-29 11:33N 50°13' W 001°36'1515.3
2017-Mar-29 10:33N 50°25' W 001°19'1514.6
2017-Mar-29 09:33N 50°37' W 001°07'1211.8
2017-Mar-29 08:34N 50°49' W 001°07'1 0.5
2017-Mar-29 07:34N 50°49' W 001°06'0 0.0
2017-Mar-29 06:34N 50°49' W 001°06'0 0.0
2017-Mar-29 05:34N 50°49' W 001°06'7 7.1
2017-Mar-29 04:34N 50°42' W 001°01'1312.8
2017-Mar-29 03:33N 50°31' W 001°11'1211.3
2017-Mar-29 02:32N 50°21' W 001°21'1010.8
2017-Mar-29 01:33N 50°13' W 001°31'1211.7
2017-Mar-29 00:33N 50°04' W 001°42'1312.8
2017-Mar-28 23:33N 49°53' W 001°52'9 0.8
2017-Mar-28 13:05N 49°47' W 002°02'1018.4
2017-Mar-28 12:33N 49°55' W 001°55'1817.7
2017-Mar-28 11:34N 50°09' W 001°38'1816.7
2017-Mar-28 10:30N 50°23' W 001°21'1515.7
2017-Mar-28 09:33N 50°35' W 001°09'1312.7
2017-Mar-28 08:34N 50°48' W 001°07'1 1.1
2017-Mar-28 07:34N 50°49' W 001°06'0 0.0
2017-Mar-28 06:33N 50°49' W 001°06'0 0.0
2017-Mar-28 05:33N 50°49' W 001°06'7 7.2
2017-Mar-28 04:33N 50°42' W 001°01'1312.6
2017-Mar-28 03:34N 50°31' W 001°09'10 9.9
2017-Mar-28 02:33N 50°22' W 001°17'1110.8
2017-Mar-28 01:34N 50°13' W 001°27'1111.0
2017-Mar-28 00:34N 50°04' W 001°37'1413.8
2017-Mar-27 23:33N 49°54' W 001°50'44 8.1
2017-Mar-27 18:06N 49°11' W 002°07'611.2
2017-Mar-27 17:33N 49°10' W 002°16'1717.1
2017-Mar-27 16:33N 49°25' W 002°29'33 8.3
2017-Mar-27 12:33N 49°51' W 001°57'1717.4
2017-Mar-27 11:34N 50°06' W 001°43'1917.9
2017-Mar-27 10:28N 50°21' W 001°24'1617.2
2017-Mar-27 09:33N 50°34' W 001°10'1312.9
2017-Mar-27 08:33N 50°47' W 001°06'2 1.8
2017-Mar-27 07:33N 50°49' W 001°06'0 0.0
2017-Mar-27 06:33N 50°49' W 001°06'0 0.0
2017-Mar-27 05:33N 50°49' W 001°06'0 0.0
2017-Mar-27 04:33N 50°49' W 001°06'0 0.0
2017-Mar-27 03:33N 50°49' W 001°06'0 0.0
2017-Mar-27 02:33N 50°49' W 001°06'0 0.0
2017-Mar-27 01:33N 50°49' W 001°06'0 0.0
2017-Mar-27 00:33N 50°49' W 001°06'0 0.0
2017-Mar-26 23:34N 50°49' W 001°06'0 0.0
2017-Mar-26 22:33N 50°49' W 001°06'0 0.0
2017-Mar-26 21:33N 50°49' W 001°06'0 0.0
2017-Mar-26 20:33N 50°49' W 001°06'0 0.0
2017-Mar-26 19:33N 50°49' W 001°06'0 0.0
2017-Mar-26 18:33N 50°49' W 001°06'0 0.0
2017-Mar-26 17:34N 50°49' W 001°06'0 0.0
2017-Mar-26 16:33N 50°49' W 001°06'0 0.0
2017-Mar-26 15:33N 50°49' W 001°06'0 0.0
2017-Mar-26 14:33N 50°49' W 001°06'0 0.0
2017-Mar-26 13:33N 50°49' W 001°06'0 0.0
2017-Mar-26 12:33N 50°49' W 001°06'0 0.0
2017-Mar-26 11:33N 50°49' W 001°06'0 0.0
2017-Mar-26 10:33N 50°49' W 001°06'0 0.0
2017-Mar-26 09:33N 50°49' W 001°06'0 0.0
2017-Mar-26 08:33N 50°49' W 001°06'0 0.0
2017-Mar-26 07:33N 50°49' W 001°06'0 0.0
2017-Mar-26 06:33N 50°49' W 001°06'5 4.8
2017-Mar-26 05:34N 50°44' W 001°04'1514.3
2017-Mar-26 04:32N 50°31' W 001°12'1616.2
2017-Mar-26 03:34N 50°19' W 001°29'1414.5
2017-Mar-26 02:34N 50°06' W 001°40'1312.7
2017-Mar-26 01:33N 49°56' W 001°52'11 0.9
2017-Mar-25 13:32N 49°47' W 002°01'1818.5
2017-Mar-25 12:34N 50°02' W 001°46'1818.4
2017-Mar-25 11:33N 50°18' W 001°31'1918.7
2017-Mar-25 10:33N 50°32' W 001°13'1515.4
2017-Mar-25 09:33N 50°47' W 001°06'2 1.9
2017-Mar-25 08:33N 50°49' W 001°06'0 0.0
2017-Mar-25 07:33N 50°49' W 001°06'0 0.0
2017-Mar-25 06:33N 50°49' W 001°06'6 6.2
2017-Mar-25 05:34N 50°43' W 001°03'1515.4
2017-Mar-25 04:33N 50°29' W 001°15'1615.7
2017-Mar-25 03:34N 50°16' W 001°28'1615.6
2017-Mar-25 02:33N 50°05' W 001°45'1514.8
2017-Mar-25 01:33N 49°52' W 001°56'3 0.2
2017-Mar-24 13:33N 49°50' W 001°59'1818.4
2017-Mar-24 12:34N 50°04' W 001°41'3718.7
2017-Mar-24 10:34N 50°35' W 001°09'1313.0
2017-Mar-24 09:33N 50°48' W 001°07'1 0.9
2017-Mar-24 08:34N 50°49' W 001°06'0 0.0
2017-Mar-24 07:33N 50°49' W 001°06'0 0.0
2017-Mar-24 06:33N 50°49' W 001°06'6 6.5
2017-Mar-24 05:33N 50°43' W 001°03'1915.1
2017-Mar-24 04:19N 50°27' W 001°21'912.5
2017-Mar-24 03:34N 50°19' W 001°27'1312.7
2017-Mar-24 02:33N 50°08' W 001°37'1413.9
2017-Mar-24 01:34N 49°56' W 001°47'28 2.5
2017-Mar-23 14:25N 49°32' W 002°13'1516.3
2017-Mar-23 13:31N 49°45' W 002°01'1717.5
2017-Mar-23 12:33N 49°60' W 001°48'1818.3
2017-Mar-23 11:34N 50°15' W 001°31'1918.6
2017-Mar-23 10:33N 50°30' W 001°15'1616.3
2017-Mar-23 09:34N 50°45' W 001°05'4 3.8
2017-Mar-23 08:34N 50°49' W 001°06'0 0.0
2017-Mar-23 07:33N 50°49' W 001°06'0 0.0
2017-Mar-23 06:33N 50°49' W 001°06'6 6.4
2017-Mar-23 05:34N 50°43' W 001°02'3115.5
2017-Mar-23 03:33N 50°16' W 001°29'1414.1
2017-Mar-23 02:33N 50°06' W 001°43'1313.1
2017-Mar-23 01:34N 49°55' W 001°54'10 0.8
2017-Mar-22 14:16N 49°46' W 002°00'1115.0
2017-Mar-22 13:33N 49°54' W 001°49'1515.4
2017-Mar-22 12:33N 50°08' W 001°39'2216.1
2017-Mar-22 11:10N 50°26' W 001°19'1015.9
2017-Mar-22 10:34N 50°34' W 001°10'1313.0
2017-Mar-22 09:33N 50°47' W 001°06'2 2.2
2017-Mar-22 08:33N 50°49' W 001°06'0 0.0
2017-Mar-22 07:33N 50°49' W 001°06'0 0.0
2017-Mar-22 06:33N 50°49' W 001°06'7 6.5
2017-Mar-22 05:34N 50°43' W 001°03'1615.2
2017-Mar-22 04:32N 50°29' W 001°15'1313.5
2017-Mar-22 03:33N 50°18' W 001°26'1313.4
2017-Mar-22 02:33N 50°07' W 001°37'1413.9
2017-Mar-22 01:33N 49°55' W 001°50'27 2.7
2017-Mar-21 15:31N 49°33' W 002°12'1515.0
2017-Mar-21 14:31N 49°46' W 002°02'1414.5
2017-Mar-21 13:33N 49°58' W 001°51'1514.6
2017-Mar-21 12:33N 50°09' W 001°36'1515.0
2017-Mar-21 11:33N 50°21' W 001°20'1615.9
2017-Mar-21 10:34N 50°34' W 001°07'1313.2
2017-Mar-21 09:33N 50°47' W 001°07'2 1.6
2017-Mar-21 08:34N 50°49' W 001°06'0 0.0
2017-Mar-21 07:33N 50°49' W 001°06'0 0.0
2017-Mar-21 06:34N 50°49' W 001°06'7 6.6
2017-Mar-21 05:34N 50°42' W 001°03'1514.4
2017-Mar-21 04:32N 50°30' W 001°15'1313.1
2017-Mar-21 03:33N 50°19' W 001°26'1313.2
2017-Mar-21 02:34N 50°08' W 001°37'1413.7
2017-Mar-21 01:34N 49°56' W 001°48'10 0.9
2017-Mar-20 14:33N 49°48' W 001°58'  
Track history (hours):
 
Tides and Currents Weather Stations Pressure Air Temp Water Temp Dewpoint Dewpoint Depression Visibility Wind Speed Wind Dir Waves Ship Positions

Commodore Clipper

Operator: Condor Marine Services

Last reported at 2017-Mar-30 14:12 UTC. Time now 2017-Mar-30 22:48 UTC.
Position N 49°32' W 002°13'.

Length 130 m; draft 5.2 m.

Type: Ship. MMSI: 308094000.

Date/timePositionNaut miles runAvg speedWind from/ knotsBaromVisibWave heightAir tempDewpointWater temp
2017-Mar-30 14:12N 49°32' W 002°13'1517.8
2017-Mar-30 13:22N 49°46' W 002°01'1316.7
2017-Mar-30 12:34N 49°56' W 001°47'1615.8
2017-Mar-30 11:34N 50°08' W 001°33'1514.7
2017-Mar-30 10:32N 50°21' W 001°20'1414.1
2017-Mar-30 09:34N 50°33' W 001°09'1313.0
2017-Mar-30 08:34N 50°45' W 001°05'3 3.4
2017-Mar-30 07:33N 50°49' W 001°06'0 0.0
2017-Mar-30 06:33N 50°49' W 001°06'0 0.0
2017-Mar-30 05:33N 50°49' W 001°06'7 7.4
2017-Mar-30 04:34N 50°42' W 001°01'1413.6
2017-Mar-30 03:33N 50°31' W 001°14'1414.2
2017-Mar-30 02:33N 50°21' W 001°28'1111.4
2017-Mar-30 01:33N 50°11' W 001°37'1312.6
2017-Mar-30 00:33N 49°60' W 001°46'1413.9
2017-Mar-29 23:33N 49°49' W 001°59'1614.5
2017-Mar-29 22:25N 49°34' W 002°10'3 0.3
2017-Mar-29 14:07N 49°32' W 002°13'1620.7
2017-Mar-29 13:21N 49°46' W 002°02'1519.0
2017-Mar-29 12:33N 49°60' W 001°51'1716.8
2017-Mar-29 11:33N 50°13' W 001°36'1515.3
2017-Mar-29 10:33N 50°25' W 001°19'1514.6
2017-Mar-29 09:33N 50°37' W 001°07'1211.8
2017-Mar-29 08:34N 50°49' W 001°07'1 0.5
2017-Mar-29 07:34N 50°49' W 001°06'0 0.0
2017-Mar-29 06:34N 50°49' W 001°06'0 0.0
2017-Mar-29 05:34N 50°49' W 001°06'7 7.1
2017-Mar-29 04:34N 50°42' W 001°01'1312.8
2017-Mar-29 03:33N 50°31' W 001°11'1211.3
2017-Mar-29 02:32N 50°21' W 001°21'1010.8
2017-Mar-29 01:33N 50°13' W 001°31'1211.7
2017-Mar-29 00:33N 50°04' W 001°42'1312.8
2017-Mar-28 23:33N 49°53' W 001°52'9 0.8
2017-Mar-28 13:05N 49°47' W 002°02'1018.4
2017-Mar-28 12:33N 49°55' W 001°55'1817.7
2017-Mar-28 11:34N 50°09' W 001°38'1816.7
2017-Mar-28 10:30N 50°23' W 001°21'1515.7
2017-Mar-28 09:33N 50°35' W 001°09'1312.7
2017-Mar-28 08:34N 50°48' W 001°07'1 1.1
2017-Mar-28 07:34N 50°49' W 001°06'0 0.0
2017-Mar-28 06:33N 50°49' W 001°06'0 0.0
2017-Mar-28 05:33N 50°49' W 001°06'7 7.2
2017-Mar-28 04:33N 50°42' W 001°01'1312.6
2017-Mar-28 03:34N 50°31' W 001°09'10 9.9
2017-Mar-28 02:33N 50°22' W 001°17'1110.8
2017-Mar-28 01:34N 50°13' W 001°27'1111.0
2017-Mar-28 00:34N 50°04' W 001°37'1413.8
2017-Mar-27 23:33N 49°54' W 001°50'44 8.1
2017-Mar-27 18:06N 49°11' W 002°07'611.2
2017-Mar-27 17:33N 49°10' W 002°16'1717.1
2017-Mar-27 16:33N 49°25' W 002°29'33 8.3
2017-Mar-27 12:33N 49°51' W 001°57'1717.4
2017-Mar-27 11:34N 50°06' W 001°43'1917.9
2017-Mar-27 10:28N 50°21' W 001°24'1617.2
2017-Mar-27 09:33N 50°34' W 001°10'1312.9
2017-Mar-27 08:33N 50°47' W 001°06'2 1.8
2017-Mar-27 07:33N 50°49' W 001°06'0 0.0
2017-Mar-27 06:33N 50°49' W 001°06'0 0.0
2017-Mar-27 05:33N 50°49' W 001°06'0 0.0
2017-Mar-27 04:33N 50°49' W 001°06'0 0.0
2017-Mar-27 03:33N 50°49' W 001°06'0 0.0
2017-Mar-27 02:33N 50°49' W 001°06'0 0.0
2017-Mar-27 01:33N 50°49' W 001°06'0 0.0
2017-Mar-27 00:33N 50°49' W 001°06'0 0.0
2017-Mar-26 23:34N 50°49' W 001°06'0 0.0
2017-Mar-26 22:33N 50°49' W 001°06'0 0.0
2017-Mar-26 21:33N 50°49' W 001°06'0 0.0
2017-Mar-26 20:33N 50°49' W 001°06'0 0.0
2017-Mar-26 19:33N 50°49' W 001°06'0 0.0
2017-Mar-26 18:33N 50°49' W 001°06'0 0.0
2017-Mar-26 17:34N 50°49' W 001°06'0 0.0
2017-Mar-26 16:33N 50°49' W 001°06'0 0.0
2017-Mar-26 15:33N 50°49' W 001°06'0 0.0
2017-Mar-26 14:33N 50°49' W 001°06'0 0.0
2017-Mar-26 13:33N 50°49' W 001°06'0 0.0
2017-Mar-26 12:33N 50°49' W 001°06'0 0.0
2017-Mar-26 11:33N 50°49' W 001°06'0 0.0
2017-Mar-26 10:33N 50°49' W 001°06'0 0.0
2017-Mar-26 09:33N 50°49' W 001°06'0 0.0
2017-Mar-26 08:33N 50°49' W 001°06'0 0.0
2017-Mar-26 07:33N 50°49' W 001°06'0 0.0
2017-Mar-26 06:33N 50°49' W 001°06'5 4.8
2017-Mar-26 05:34N 50°44' W 001°04'1514.3
2017-Mar-26 04:32N 50°31' W 001°12'1616.2
2017-Mar-26 03:34N 50°19' W 001°29'1414.5
2017-Mar-26 02:34N 50°06' W 001°40'1312.7
2017-Mar-26 01:33N 49°56' W 001°52'11 0.9
2017-Mar-25 13:32N 49°47' W 002°01'1818.5
2017-Mar-25 12:34N 50°02' W 001°46'1818.4
2017-Mar-25 11:33N 50°18' W 001°31'1918.7
2017-Mar-25 10:33N 50°32' W 001°13'1515.4
2017-Mar-25 09:33N 50°47' W 001°06'2 1.9
2017-Mar-25 08:33N 50°49' W 001°06'0 0.0
2017-Mar-25 07:33N 50°49' W 001°06'0 0.0
2017-Mar-25 06:33N 50°49' W 001°06'6 6.2
2017-Mar-25 05:34N 50°43' W 001°03'1515.4
2017-Mar-25 04:33N 50°29' W 001°15'1615.7
2017-Mar-25 03:34N 50°16' W 001°28'1615.6
2017-Mar-25 02:33N 50°05' W 001°45'1514.8
2017-Mar-25 01:33N 49°52' W 001°56'3 0.2
2017-Mar-24 13:33N 49°50' W 001°59'1818.4
2017-Mar-24 12:34N 50°04' W 001°41'3718.7
2017-Mar-24 10:34N 50°35' W 001°09'1313.0
2017-Mar-24 09:33N 50°48' W 001°07'1 0.9
2017-Mar-24 08:34N 50°49' W 001°06'0 0.0
2017-Mar-24 07:33N 50°49' W 001°06'0 0.0
2017-Mar-24 06:33N 50°49' W 001°06'6 6.5
2017-Mar-24 05:33N 50°43' W 001°03'1915.1
2017-Mar-24 04:19N 50°27' W 001°21'912.5
2017-Mar-24 03:34N 50°19' W 001°27'1312.7
2017-Mar-24 02:33N 50°08' W 001°37'1413.9
2017-Mar-24 01:34N 49°56' W 001°47'28 2.5
2017-Mar-23 14:25N 49°32' W 002°13'1516.3
2017-Mar-23 13:31N 49°45' W 002°01'1717.5
2017-Mar-23 12:33N 49°60' W 001°48'1818.3
2017-Mar-23 11:34N 50°15' W 001°31'1918.6
2017-Mar-23 10:33N 50°30' W 001°15'1616.3
2017-Mar-23 09:34N 50°45' W 001°05'4 3.8
2017-Mar-23 08:34N 50°49' W 001°06'0 0.0
2017-Mar-23 07:33N 50°49' W 001°06'0 0.0
2017-Mar-23 06:33N 50°49' W 001°06'6 6.4
2017-Mar-23 05:34N 50°43' W 001°02'3115.5
2017-Mar-23 03:33N 50°16' W 001°29'1414.1
2017-Mar-23 02:33N 50°06' W 001°43'1313.1
2017-Mar-23 01:34N 49°55' W 001°54'10 0.8
2017-Mar-22 14:16N 49°46' W 002°00'1115.0
2017-Mar-22 13:33N 49°54' W 001°49'1515.4
2017-Mar-22 12:33N 50°08' W 001°39'2216.1
2017-Mar-22 11:10N 50°26' W 001°19'1015.9
2017-Mar-22 10:34N 50°34' W 001°10'1313.0
2017-Mar-22 09:33N 50°47' W 001°06'2 2.2
2017-Mar-22 08:33N 50°49' W 001°06'0 0.0
2017-Mar-22 07:33N 50°49' W 001°06'0 0.0
2017-Mar-22 06:33N 50°49' W 001°06'7 6.5
2017-Mar-22 05:34N 50°43' W 001°03'1615.2
2017-Mar-22 04:32N 50°29' W 001°15'1313.5
2017-Mar-22 03:33N 50°18' W 001°26'1313.4
2017-Mar-22 02:33N 50°07' W 001°37'1413.9
2017-Mar-22 01:33N 49°55' W 001°50'27 2.7
2017-Mar-21 15:31N 49°33' W 002°12'1515.0
2017-Mar-21 14:31N 49°46' W 002°02'1414.5
2017-Mar-21 13:33N 49°58' W 001°51'1514.6
2017-Mar-21 12:33N 50°09' W 001°36'1515.0
2017-Mar-21 11:33N 50°21' W 001°20'1615.9
2017-Mar-21 10:34N 50°34' W 001°07'1313.2
2017-Mar-21 09:33N 50°47' W 001°07'2 1.6
2017-Mar-21 08:34N 50°49' W 001°06'0 0.0
2017-Mar-21 07:33N 50°49' W 001°06'0 0.0
2017-Mar-21 06:34N 50°49' W 001°06'7 6.6
2017-Mar-21 05:34N 50°42' W 001°03'1514.4
2017-Mar-21 04:32N 50°30' W 001°15'1313.1
2017-Mar-21 03:33N 50°19' W 001°26'1313.2
2017-Mar-21 02:34N 50°08' W 001°37'1413.7
2017-Mar-21 01:34N 49°56' W 001°48'10 0.9
2017-Mar-20 14:33N 49°48' W 001°58'  

Dump ship's entire track history